sensor_id;sensor_type;location;lat;lon;timestamp;pressure;altitude;pressure_sealevel;temperature;humidity
51530;BME280;37613;51.788;21.582;2023-04-07T00:03:54;99888.34;;;3.47;99.71
51530;BME280;37613;51.788;21.582;2023-04-07T00:12:56;99882.38;;;3.52;99.60
51530;BME280;37613;51.788;21.582;2023-04-07T00:17:14;99880.29;;;3.54;99.58
51530;BME280;37613;51.788;21.582;2023-04-07T00:21:48;99876.45;;;3.53;99.89
51530;BME280;37613;51.788;21.582;2023-04-07T00:26:25;99879.05;;;3.54;99.75
51530;BME280;37613;51.788;21.582;2023-04-07T00:31:06;99878.59;;;3.55;99.57
51530;BME280;37613;51.788;21.582;2023-04-07T00:35:15;99874.61;;;3.55;99.73
51530;BME280;37613;51.788;21.582;2023-04-07T00:39:31;99872.25;;;3.57;99.72
51530;BME280;37613;51.788;21.582;2023-04-07T00:44:01;99872.06;;;3.59;99.66
51530;BME280;37613;51.788;21.582;2023-04-07T00:57:19;99870.39;;;3.66;99.77
51530;BME280;37613;51.788;21.582;2023-04-07T01:01:58;99867.10;;;3.68;99.76
51530;BME280;37613;51.788;21.582;2023-04-07T01:06:31;99866.11;;;3.70;99.75
51530;BME280;37613;51.788;21.582;2023-04-07T01:15:39;99860.21;;;3.75;99.91
51530;BME280;37613;51.788;21.582;2023-04-07T01:19:48;99859.10;;;3.78;99.98
51530;BME280;37613;51.788;21.582;2023-04-07T01:29:43;99850.02;;;3.86;100.00
51530;BME280;37613;51.788;21.582;2023-04-07T01:34:19;99850.75;;;3.89;100.00
51530;BME280;37613;51.788;21.582;2023-04-07T01:38:39;99853.32;;;3.93;100.00
51530;BME280;37613;51.788;21.582;2023-04-07T01:43:02;99853.90;;;3.98;100.00
51530;BME280;37613;51.788;21.582;2023-04-07T01:47:38;99853.83;;;4.03;100.00
51530;BME280;37613;51.788;21.582;2023-04-07T01:56:47;99849.71;;;4.11;100.00
51530;BME280;37613;51.788;21.582;2023-04-07T02:01:00;99846.98;;;4.15;100.00
51530;BME280;37613;51.788;21.582;2023-04-07T02:05:17;99847.68;;;4.20;100.00
51530;BME280;37613;51.788;21.582;2023-04-07T02:09:48;99845.94;;;4.23;100.00
51530;BME280;37613;51.788;21.582;2023-04-07T02:14:05;99837.92;;;4.26;100.00
51530;BME280;37613;51.788;21.582;2023-04-07T02:18:14;99838.54;;;4.28;100.00
51530;BME280;37613;51.788;21.582;2023-04-07T02:22:53;99842.27;;;4.31;100.00
51530;BME280;37613;51.788;21.582;2023-04-07T02:27:13;99847.05;;;4.35;100.00
51530;BME280;37613;51.788;21.582;2023-04-07T02:31:50;99847.11;;;4.39;100.00
51530;BME280;37613;51.788;21.582;2023-04-07T02:36:39;99844.92;;;4.43;100.00
51530;BME280;37613;51.788;21.582;2023-04-07T02:50:38;99840.04;;;4.54;100.00
51530;BME280;37613;51.788;21.582;2023-04-07T02:54:57;99839.45;;;4.57;100.00
51530;BME280;37613;51.788;21.582;2023-04-07T03:04:35;99843.04;;;4.65;100.00
51530;BME280;37613;51.788;21.582;2023-04-07T03:08:59;99842.55;;;4.67;100.00
51530;BME280;37613;51.788;21.582;2023-04-07T03:13:26;99839.24;;;4.71;100.00
51530;BME280;37613;51.788;21.582;2023-04-07T03:17:50;99842.06;;;4.75;100.00
51530;BME280;37613;51.788;21.582;2023-04-07T03:27:35;99844.88;;;4.84;100.00
51530;BME280;37613;51.788;21.582;2023-04-07T03:32:34;99845.32;;;4.87;100.00
51530;BME280;37613;51.788;21.582;2023-04-07T03:36:47;99843.42;;;4.91;100.00
51530;BME280;37613;51.788;21.582;2023-04-07T03:42:00;99843.96;;;4.95;100.00
51530;BME280;37613;51.788;21.582;2023-04-07T03:56:27;99842.13;;;5.07;100.00
51530;BME280;37613;51.788;21.582;2023-04-07T04:00:53;99842.02;;;5.11;100.00
51530;BME280;37613;51.788;21.582;2023-04-07T04:05:05;99839.96;;;5.14;100.00
51530;BME280;37613;51.788;21.582;2023-04-07T04:09:23;99842.45;;;5.17;100.00
51530;BME280;37613;51.788;21.582;2023-04-07T04:13:42;99841.64;;;5.21;100.00
51530;BME280;37613;51.788;21.582;2023-04-07T04:18:00;99842.73;;;5.25;100.00
51530;BME280;37613;51.788;21.582;2023-04-07T04:22:15;99844.98;;;5.28;100.00
51530;BME280;37613;51.788;21.582;2023-04-07T04:26:34;99846.27;;;5.32;100.00
51530;BME280;37613;51.788;21.582;2023-04-07T04:30:55;99849.55;;;5.36;100.00
51530;BME280;37613;51.788;21.582;2023-04-07T04:35:11;99850.94;;;5.39;100.00
51530;BME280;37613;51.788;21.582;2023-04-07T04:39:34;99851.59;;;5.41;100.00
51530;BME280;37613;51.788;21.582;2023-04-07T04:43:50;99853.91;;;5.45;100.00
51530;BME280;37613;51.788;21.582;2023-04-07T04:48:04;99855.53;;;5.48;100.00
51530;BME280;37613;51.788;21.582;2023-04-07T04:52:19;99857.17;;;5.53;100.00
51530;BME280;37613;51.788;21.582;2023-04-07T04:56:37;99854.64;;;5.57;100.00
51530;BME280;37613;51.788;21.582;2023-04-07T05:00:40;99856.27;;;5.61;100.00
51530;BME280;37613;51.788;21.582;2023-04-07T05:04:53;99854.76;;;5.65;100.00
51530;BME280;37613;51.788;21.582;2023-04-07T05:08:58;99856.31;;;5.69;100.00
51530;BME280;37613;51.788;21.582;2023-04-07T05:13:06;99853.45;;;5.72;100.00
51530;BME280;37613;51.788;21.582;2023-04-07T05:17:28;99855.16;;;5.77;100.00
51530;BME280;37613;51.788;21.582;2023-04-07T05:21:46;99854.75;;;5.82;100.00
51530;BME280;37613;51.788;21.582;2023-04-07T05:26:06;99853.73;;;5.86;100.00
51530;BME280;37613;51.788;21.582;2023-04-07T05:30:18;99857.72;;;5.91;100.00
51530;BME280;37613;51.788;21.582;2023-04-07T05:34:38;99858.42;;;5.96;100.00
51530;BME280;37613;51.788;21.582;2023-04-07T05:38:51;99856.98;;;6.00;100.00
51530;BME280;37613;51.788;21.582;2023-04-07T05:43:11;99859.48;;;6.05;100.00
51530;BME280;37613;51.788;21.582;2023-04-07T05:47:25;99859.23;;;6.10;100.00
51530;BME280;37613;51.788;21.582;2023-04-07T05:51:48;99861.63;;;6.14;100.00
51530;BME280;37613;51.788;21.582;2023-04-07T05:55:58;99861.29;;;6.18;100.00
51530;BME280;37613;51.788;21.582;2023-04-07T06:00:09;99860.02;;;6.24;100.00
51530;BME280;37613;51.788;21.582;2023-04-07T06:04:35;99862.66;;;6.29;100.00
51530;BME280;37613;51.788;21.582;2023-04-07T06:08:40;99865.38;;;6.32;100.00
51530;BME280;37613;51.788;21.582;2023-04-07T06:12:42;99863.38;;;6.35;100.00
51530;BME280;37613;51.788;21.582;2023-04-07T06:16:58;99861.15;;;6.40;100.00
51530;BME280;37613;51.788;21.582;2023-04-07T06:21:12;99862.05;;;6.45;100.00
51530;BME280;37613;51.788;21.582;2023-04-07T06:25:28;99864.40;;;6.51;100.00
51530;BME280;37613;51.788;21.582;2023-04-07T06:29:49;99862.66;;;6.56;100.00
51530;BME280;37613;51.788;21.582;2023-04-07T06:34:20;99865.14;;;6.61;100.00
51530;BME280;37613;51.788;21.582;2023-04-07T18:34:34;100445.27;;;5.98;95.14
51530;BME280;37613;51.788;21.582;2023-04-07T18:38:39;100453.67;;;5.92;94.88
51530;BME280;37613;51.788;21.582;2023-04-07T18:42:40;100464.84;;;5.86;94.55
51530;BME280;37613;51.788;21.582;2023-04-07T18:46:45;100469.29;;;5.79;94.27
51530;BME280;37613;51.788;21.582;2023-04-07T18:51:05;100473.65;;;5.75;93.95
51530;BME280;37613;51.788;21.582;2023-04-07T18:55:10;100479.91;;;5.68;93.78
51530;BME280;37613;51.788;21.582;2023-04-07T18:59:30;100483.64;;;5.63;93.87
51530;BME280;37613;51.788;21.582;2023-04-07T19:03:31;100489.82;;;5.59;93.76
51530;BME280;37613;51.788;21.582;2023-04-07T19:07:33;100487.94;;;5.53;93.32
51530;BME280;37613;51.788;21.582;2023-04-07T19:11:37;100486.95;;;5.47;93.24
51530;BME280;37613;51.788;21.582;2023-04-07T19:15:44;100484.45;;;5.42;93.31
51530;BME280;37613;51.788;21.582;2023-04-07T19:24:16;100491.69;;;5.24;92.68
51530;BME280;37613;51.788;21.582;2023-04-07T19:28:21;100495.02;;;5.17;92.64
51530;BME280;37613;51.788;21.582;2023-04-07T19:32:22;100502.30;;;5.07;92.45
51530;BME280;37613;51.788;21.582;2023-04-07T19:36:24;100504.61;;;5.00;92.61
51530;BME280;37613;51.788;21.582;2023-04-07T19:40:27;100510.09;;;4.94;92.69
51530;BME280;37613;51.788;21.582;2023-04-07T19:44:31;100518.98;;;4.90;92.71
51530;BME280;37613;51.788;21.582;2023-04-07T19:48:54;100522.27;;;4.89;92.80
51530;BME280;37613;51.788;21.582;2023-04-07T19:53:07;100525.95;;;4.92;92.78
51530;BME280;37613;51.788;21.582;2023-04-07T19:57:10;100531.31;;;4.97;92.53
51530;BME280;37613;51.788;21.582;2023-04-07T20:01:17;100535.61;;;4.99;92.57
51530;BME280;37613;51.788;21.582;2023-04-07T20:05:25;100539.73;;;5.01;92.68
51530;BME280;37613;51.788;21.582;2023-04-07T20:09:26;100543.11;;;4.99;92.52
51530;BME280;37613;51.788;21.582;2023-04-07T20:13:35;100548.73;;;5.00;92.49
51530;BME280;37613;51.788;21.582;2023-04-07T20:17:40;100557.02;;;5.00;91.92
51530;BME280;37613;51.788;21.582;2023-04-07T20:21:41;100562.26;;;4.99;91.59
51530;BME280;37613;51.788;21.582;2023-04-07T20:25:51;100566.53;;;5.00;91.53
51530;BME280;37613;51.788;21.582;2023-04-07T20:29:59;100566.81;;;4.99;91.18
51530;BME280;37613;51.788;21.582;2023-04-07T20:34:00;100570.63;;;4.98;91.15
51530;BME280;37613;51.788;21.582;2023-04-07T20:38:08;100573.17;;;4.98;91.12
51530;BME280;37613;51.788;21.582;2023-04-07T20:42:13;100575.02;;;4.96;91.09
51530;BME280;37613;51.788;21.582;2023-04-07T20:46:14;100581.63;;;4.94;90.81
51530;BME280;37613;51.788;21.582;2023-04-07T20:50:19;100579.55;;;4.91;90.20
51530;BME280;37613;51.788;21.582;2023-04-07T20:54:26;100581.36;;;4.88;89.96
51530;BME280;37613;51.788;21.582;2023-04-07T20:58:35;100583.44;;;4.87;89.66
51530;BME280;37613;51.788;21.582;2023-04-07T21:02:39;100585.02;;;4.87;89.79
51530;BME280;37613;51.788;21.582;2023-04-07T21:06:50;100588.31;;;4.88;89.96
51530;BME280;37613;51.788;21.582;2023-04-07T21:10:51;100591.67;;;4.87;89.92
51530;BME280;37613;51.788;21.582;2023-04-07T21:14:56;100595.91;;;4.88;90.16
51530;BME280;37613;51.788;21.582;2023-04-07T21:18:57;100595.45;;;4.87;90.20
51530;BME280;37613;51.788;21.582;2023-04-07T21:22:58;100595.42;;;4.87;90.14
51530;BME280;37613;51.788;21.582;2023-04-07T21:27:00;100599.36;;;4.87;90.24
51530;BME280;37613;51.788;21.582;2023-04-07T21:31:01;100598.58;;;4.87;90.33
51530;BME280;37613;51.788;21.582;2023-04-07T21:35:10;100600.72;;;4.89;90.18
51530;BME280;37613;51.788;21.582;2023-04-07T21:39:16;100603.67;;;4.88;90.12
51530;BME280;37613;51.788;21.582;2023-04-07T21:43:25;100602.95;;;4.87;90.09
51530;BME280;37613;51.788;21.582;2023-04-07T21:47:33;100606.13;;;4.86;90.12
51530;BME280;37613;51.788;21.582;2023-04-07T21:51:43;100608.71;;;4.86;90.22
51530;BME280;37613;51.788;21.582;2023-04-07T21:55:53;100612.48;;;4.86;90.21
51530;BME280;37613;51.788;21.582;2023-04-07T22:00:00;100616.89;;;4.86;90.14
51530;BME280;37613;51.788;21.582;2023-04-07T22:04:06;100621.25;;;4.86;89.96
51530;BME280;37613;51.788;21.582;2023-04-07T22:08:10;100622.63;;;4.85;89.80
51530;BME280;37613;51.788;21.582;2023-04-07T22:12:12;100623.70;;;4.84;89.86
51530;BME280;37613;51.788;21.582;2023-04-07T22:16:14;100626.98;;;4.83;89.85
51530;BME280;37613;51.788;21.582;2023-04-07T22:20:18;100625.55;;;4.83;89.68
51530;BME280;37613;51.788;21.582;2023-04-07T22:24:25;100625.89;;;4.82;89.76
51530;BME280;37613;51.788;21.582;2023-04-07T22:28:32;100626.70;;;4.82;89.90
51530;BME280;37613;51.788;21.582;2023-04-07T22:32:33;100626.89;;;4.83;90.00
51530;BME280;37613;51.788;21.582;2023-04-07T22:36:38;100625.02;;;4.83;89.83
51530;BME280;37613;51.788;21.582;2023-04-07T22:40:42;100631.70;;;4.84;89.88
51530;BME280;37613;51.788;21.582;2023-04-07T22:44:49;100631.55;;;4.84;89.89
51530;BME280;37613;51.788;21.582;2023-04-07T22:48:54;100633.69;;;4.83;89.72
51530;BME280;37613;51.788;21.582;2023-04-07T22:52:58;100634.63;;;4.80;89.67
51530;BME280;37613;51.788;21.582;2023-04-07T22:57:02;100637.71;;;4.79;89.74
51530;BME280;37613;51.788;21.582;2023-04-07T23:01:04;100642.27;;;4.76;89.80
51530;BME280;37613;51.788;21.582;2023-04-07T23:05:08;100642.00;;;4.75;89.74
51530;BME280;37613;51.788;21.582;2023-04-07T23:09:18;100642.04;;;4.74;89.64
51530;BME280;37613;51.788;21.582;2023-04-07T23:17:42;100638.45;;;4.69;89.43
51530;BME280;37613;51.788;21.582;2023-04-07T23:21:43;100634.74;;;4.65;89.48
51530;BME280;37613;51.788;21.582;2023-04-07T23:25:49;100633.41;;;4.63;89.42
51530;BME280;37613;51.788;21.582;2023-04-07T23:29:59;100635.77;;;4.60;89.26
51530;BME280;37613;51.788;21.582;2023-04-07T23:34:03;100639.05;;;4.56;89.19
51530;BME280;37613;51.788;21.582;2023-04-07T23:38:04;100640.06;;;4.50;89.21
51530;BME280;37613;51.788;21.582;2023-04-07T23:42:15;100637.79;;;4.45;88.91
51530;BME280;37613;51.788;21.582;2023-04-07T23:46:18;100641.29;;;4.39;88.83
51530;BME280;37613;51.788;21.582;2023-04-07T23:50:21;100641.83;;;4.32;88.72
51530;BME280;37613;51.788;21.582;2023-04-07T23:54:22;100645.35;;;4.25;88.72
51530;BME280;37613;51.788;21.582;2023-04-07T23:58:24;100649.87;;;4.16;88.72
